createdAt,value
2018-01-21T00:00:51.235Z,17.02
2018-01-21T00:01:53.239Z,19.65
2018-01-21T00:02:55.169Z,19.60
2018-01-21T00:04:07.135Z,20.40
2018-01-21T00:05:10.861Z,24.17
2018-01-21T00:06:13.392Z,18.62
2018-01-21T00:07:15.347Z,18.10
2018-01-21T00:08:17.256Z,17.67
2018-01-21T00:09:19.291Z,19.58
2018-01-21T00:10:22.196Z,19.00
2018-01-21T00:11:24.968Z,18.70
2018-01-21T00:12:26.908Z,19.25
2018-01-21T00:13:28.819Z,19.75
2018-01-21T00:14:30.743Z,20.00
2018-01-21T00:15:32.773Z,19.92
2018-01-21T00:16:34.760Z,22.55
2018-01-21T00:17:37.768Z,23.23
2018-01-21T00:18:40.665Z,21.50
2018-01-21T00:19:42.695Z,19.23
2018-01-21T00:20:44.836Z,22.10
2018-01-21T00:21:46.767Z,21.30
2018-01-21T00:22:57.020Z,19.85
2018-01-21T00:23:59.032Z,22.00
2018-01-21T00:25:01.306Z,19.45
2018-01-21T00:26:03.248Z,25.75
2018-01-21T00:27:07.333Z,24.35
2018-01-21T00:28:09.256Z,25.85
2018-01-21T00:29:11.261Z,22.85
2018-01-21T00:30:13.197Z,21.73
2018-01-21T00:31:15.272Z,21.70
2018-01-21T00:32:17.263Z,23.48
2018-01-21T00:33:19.171Z,29.08
2018-01-21T00:34:21.245Z,26.92
2018-01-21T00:35:23.180Z,25.25
2018-01-21T00:36:25.041Z,23.60
2018-01-21T00:37:26.964Z,22.30
2018-01-21T00:38:34.931Z,23.52
2018-01-21T00:39:36.828Z,21.83
2018-01-21T00:40:38.736Z,23.05
2018-01-21T00:41:41.690Z,21.85
2018-01-21T00:42:43.688Z,22.60
2018-01-21T00:43:50.189Z,23.15
2018-01-21T00:44:53.817Z,21.65
2018-01-21T00:45:55.880Z,22.85
2018-01-21T00:46:57.872Z,25.17
2018-01-21T00:47:59.812Z,20.02
2018-01-21T00:49:02.305Z,19.65
2018-01-21T00:50:04.418Z,21.67
2018-01-21T00:51:07.030Z,21.75
2018-01-21T00:52:08.930Z,23.02
2018-01-21T00:53:10.864Z,18.87
2018-01-21T00:54:13.684Z,20.23
2018-01-21T00:55:15.752Z,18.30
2018-01-21T00:56:17.687Z,17.98
2018-01-21T00:57:19.655Z,18.73
2018-01-21T00:58:22.451Z,20.30
2018-01-21T00:59:24.335Z,17.55
2018-01-21T01:00:26.352Z,18.67
2018-01-21T01:01:28.409Z,16.87
2018-01-21T01:02:30.376Z,17.92
2018-01-21T01:03:33.011Z,17.42
2018-01-21T01:04:35.611Z,18.45
2018-01-21T01:05:38.450Z,17.52
2018-01-21T01:06:40.377Z,17.45
2018-01-21T01:07:42.337Z,16.12
2018-01-21T01:08:44.322Z,16.23
2018-01-21T01:09:46.267Z,18.85
2018-01-21T01:10:48.225Z,17.33
2018-01-21T01:11:50.134Z,20.23
2018-01-21T01:12:52.304Z,16.77
2018-01-21T01:13:54.224Z,15.43
2018-01-21T01:14:56.097Z,16.50
2018-01-21T01:15:58.100Z,16.67
2018-01-21T01:16:59.960Z,17.65
2018-01-21T01:18:01.897Z,18.08
2018-01-21T01:19:03.907Z,15.52
2018-01-21T01:20:05.998Z,18.40
2018-01-21T01:21:07.932Z,16.27
2018-01-21T01:22:09.876Z,17.40
2018-01-21T01:23:11.775Z,17.37
2018-01-21T01:24:13.664Z,16.92
2018-01-21T01:25:15.740Z,17.37
2018-01-21T01:26:17.763Z,16.20
2018-01-21T01:27:19.785Z,15.32
2018-01-21T01:28:21.691Z,17.45
2018-01-21T01:29:23.590Z,17.40
2018-01-21T01:30:25.641Z,17.23
2018-01-21T01:31:27.544Z,16.83
2018-01-21T01:32:32.569Z,17.55
2018-01-21T01:33:34.574Z,16.60
2018-01-21T01:34:36.624Z,17.02
2018-01-21T01:35:38.523Z,18.85
2018-01-21T01:36:40.461Z,15.68
2018-01-21T01:37:42.432Z,15.68
2018-01-21T01:38:44.433Z,18.27
2018-01-21T01:39:46.373Z,17.37
2018-01-21T01:40:48.304Z,17.15
2018-01-21T01:41:50.432Z,15.05
2018-01-21T01:42:52.520Z,16.10
2018-01-21T01:43:54.587Z,17.12
2018-01-21T01:44:56.574Z,19.58
2018-01-21T01:45:58.577Z,18.80
2018-01-21T01:47:00.564Z,16.67
2018-01-21T01:48:02.478Z,16.85
2018-01-21T01:49:04.472Z,14.95
2018-01-21T01:50:06.540Z,19.77
2018-01-21T01:51:09.344Z,15.60
2018-01-21T01:52:11.388Z,16.30
2018-01-21T01:53:13.304Z,14.80
2018-01-21T01:54:16.179Z,18.15
2018-01-21T01:55:18.217Z,16.90
2018-01-21T01:56:20.172Z,17.58
2018-01-21T01:57:22.084Z,14.57
2018-01-21T01:58:24.055Z,15.57
2018-01-21T01:59:25.968Z,15.82
2018-01-21T02:00:27.981Z,16.50
2018-01-21T02:01:29.924Z,14.43
2018-01-21T02:02:31.814Z,18.52
2018-01-21T02:03:33.738Z,15.88
2018-01-21T02:04:35.755Z,13.52
2018-01-21T02:05:37.742Z,16.77
2018-01-21T02:06:39.707Z,15.88
2018-01-21T02:07:41.632Z,16.60
2018-01-21T02:08:43.519Z,16.85
2018-01-21T02:09:45.445Z,18.30
2018-01-21T02:10:47.476Z,19.98
2018-01-21T02:11:49.623Z,15.98
2018-01-21T02:12:51.596Z,16.77
2018-01-21T02:13:53.520Z,17.05
2018-01-21T02:14:55.439Z,15.80
2018-01-21T02:15:57.587Z,16.25
2018-01-21T02:17:04.149Z,16.17
2018-01-21T02:18:06.111Z,15.90
2018-01-21T02:19:08.104Z,16.05
2018-01-21T02:20:10.151Z,16.17
2018-01-21T02:21:12.240Z,15.77
2018-01-21T02:22:14.128Z,19.48
2018-01-21T02:23:16.045Z,17.85
2018-01-21T02:24:18.088Z,14.43
2018-01-21T02:25:20.123Z,16.75
2018-01-21T02:26:22.096Z,15.57
2018-01-21T02:27:23.991Z,16.65
2018-01-21T02:28:25.918Z,17.42
2018-01-21T02:29:27.847Z,16.10
2018-01-21T02:30:29.861Z,14.35
2018-01-21T02:31:42.377Z,15.10
2018-01-21T02:32:44.342Z,15.80
2018-01-21T02:33:46.261Z,15.50
2018-01-21T02:34:48.331Z,14.52
2018-01-21T02:35:50.267Z,17.55
2018-01-21T02:36:52.144Z,18.83
2018-01-21T02:37:54.923Z,16.95
2018-01-21T02:38:56.814Z,15.80
2018-01-21T02:39:58.721Z,17.45
2018-01-21T02:41:00.656Z,16.30
2018-01-21T02:42:02.575Z,16.73
2018-01-21T02:43:04.756Z,18.75
2018-01-21T02:44:06.640Z,17.90
2018-01-21T02:45:08.564Z,17.23
2018-01-21T02:46:10.497Z,16.95
2018-01-21T02:47:12.545Z,16.05
2018-01-21T02:48:14.448Z,17.98
2018-01-21T02:49:16.377Z,18.65
2018-01-21T02:50:18.404Z,18.27
2018-01-21T02:51:20.313Z,19.67
2018-01-21T02:52:22.210Z,16.35
2018-01-21T02:53:24.483Z,19.15
2018-01-21T02:54:26.405Z,16.98
2018-01-21T02:55:28.479Z,16.40
2018-01-21T02:56:30.415Z,19.37
2018-01-21T02:57:32.295Z,17.83
2018-01-21T02:58:34.208Z,16.83
2018-01-21T02:59:36.160Z,18.62
2018-01-21T03:00:38.088Z,19.87
2018-01-21T03:01:40.070Z,19.45
2018-01-21T03:02:42.053Z,18.40
2018-01-21T03:03:44.135Z,20.65
2018-01-21T03:04:46.136Z,19.23
2018-01-21T03:05:48.049Z,18.27
2018-01-21T03:06:49.983Z,19.75
2018-01-21T03:07:51.844Z,21.37
2018-01-21T03:08:53.804Z,19.80
2018-01-21T03:09:55.752Z,20.08
2018-01-21T03:10:57.654Z,19.10
2018-01-21T03:11:59.721Z,21.87
2018-01-21T03:13:01.603Z,23.77
2018-01-21T03:14:03.569Z,23.27
2018-01-21T03:15:05.471Z,23.85
2018-01-21T03:16:07.440Z,21.62
2018-01-21T03:17:09.401Z,22.58
2018-01-21T03:18:11.440Z,22.70
2018-01-21T03:19:13.367Z,21.70
2018-01-21T03:20:15.452Z,20.05
2018-01-21T03:21:17.406Z,20.75
2018-01-21T03:22:19.310Z,19.85
2018-01-21T03:23:21.332Z,21.27
2018-01-21T03:24:24.439Z,22.30
2018-01-21T03:25:30.128Z,24.55
2018-01-21T03:26:32.054Z,23.00
2018-01-21T03:27:34.439Z,23.67
2018-01-21T03:28:43.370Z,25.95
2018-01-21T03:29:45.426Z,24.45
2018-01-21T03:30:48.365Z,21.60
2018-01-21T03:31:50.240Z,21.67
2018-01-21T03:32:52.132Z,23.77
2018-01-21T03:33:54.066Z,27.40
2018-01-21T03:34:56.115Z,23.40
2018-01-21T03:35:58.106Z,23.80
2018-01-21T03:37:00.034Z,22.10
2018-01-21T03:38:01.970Z,22.13
2018-01-21T03:39:09.908Z,23.87
2018-01-21T03:40:11.817Z,25.30
2018-01-21T03:41:13.855Z,26.35
2018-01-21T03:42:16.541Z,22.60
2018-01-21T03:43:18.524Z,23.87
2018-01-21T03:44:20.479Z,19.98
2018-01-21T03:45:22.492Z,22.67
2018-01-21T03:46:25.157Z,22.87
2018-01-21T03:47:27.101Z,21.87
2018-01-21T03:48:29.069Z,21.60
2018-01-21T03:49:31.071Z,21.12
2018-01-21T03:50:33.119Z,20.67
2018-01-21T03:51:35.032Z,21.40
2018-01-21T03:52:36.971Z,25.58
2018-01-21T03:53:38.922Z,24.65
2018-01-21T03:54:40.988Z,21.62
2018-01-21T03:55:43.010Z,23.35
2018-01-21T03:56:44.987Z,20.20
2018-01-21T03:57:46.879Z,20.98
2018-01-21T03:58:48.968Z,20.58
2018-01-21T03:59:50.883Z,20.23
2018-01-21T04:00:52.790Z,21.80
2018-01-21T04:01:54.696Z,21.05
2018-01-21T04:02:56.624Z,21.12
2018-01-21T04:03:58.636Z,20.02
2018-01-21T04:05:00.709Z,19.02
2018-01-21T04:06:02.642Z,24.08
2018-01-21T04:07:04.660Z,18.95
2018-01-21T04:08:06.764Z,19.73
2018-01-21T04:09:08.639Z,17.55
2018-01-21T04:10:10.541Z,19.15
2018-01-21T04:11:12.432Z,19.65
2018-01-21T04:12:14.394Z,16.65
2018-01-21T04:13:16.362Z,23.20
2018-01-21T04:14:18.301Z,19.62
2018-01-21T04:15:20.528Z,18.00
2018-01-21T04:16:22.419Z,18.27
2018-01-21T04:17:24.291Z,17.42
2018-01-21T04:18:26.296Z,16.10
2018-01-21T04:19:28.316Z,17.55
2018-01-21T04:20:30.351Z,19.87
2018-01-21T04:21:32.467Z,20.55
2018-01-21T04:22:34.506Z,15.32
2018-01-21T04:23:36.412Z,16.17
2018-01-21T04:24:38.329Z,15.45
2018-01-21T04:25:40.399Z,16.00
2018-01-21T04:26:47.699Z,21.17
2018-01-21T04:27:49.649Z,17.00
2018-01-21T04:28:51.678Z,18.40
2018-01-21T04:29:58.968Z,16.62
2018-01-21T04:31:01.773Z,18.27
2018-01-21T04:32:03.707Z,14.43
2018-01-21T04:33:05.871Z,18.73
2018-01-21T04:34:07.723Z,16.10
2018-01-21T04:35:09.749Z,15.95
2018-01-21T04:36:11.766Z,16.60
2018-01-21T04:37:13.667Z,16.60
2018-01-21T04:38:15.580Z,15.90
2018-01-21T04:39:17.463Z,16.95
2018-01-21T04:40:19.402Z,17.20
2018-01-21T04:41:21.316Z,17.35
2018-01-21T04:42:23.160Z,19.95
2018-01-21T04:43:25.136Z,18.55
2018-01-21T04:44:27.123Z,18.33
2018-01-21T04:45:29.013Z,18.10
2018-01-21T04:46:30.931Z,18.48
2018-01-21T04:47:32.947Z,18.12
2018-01-21T04:48:35.113Z,20.62
2018-01-21T04:49:37.129Z,21.65
2018-01-21T04:50:40.032Z,19.52
2018-01-21T04:51:41.918Z,21.60
2018-01-21T04:52:43.800Z,18.25
2018-01-21T04:53:45.679Z,19.52
2018-01-21T04:54:47.630Z,18.98
2018-01-21T04:55:49.664Z,23.73
2018-01-21T04:56:51.728Z,19.27
2018-01-21T04:57:53.677Z,20.67
2018-01-21T04:58:55.636Z,18.02
2018-01-21T04:59:57.500Z,20.08
2018-01-21T05:00:59.467Z,22.33
2018-01-21T05:02:01.327Z,20.40
2018-01-21T05:03:03.221Z,19.60
2018-01-21T05:04:05.421Z,20.73
2018-01-21T05:05:07.381Z,20.20
2018-01-21T05:06:09.384Z,20.70
2018-01-21T05:07:12.320Z,22.10
2018-01-21T05:08:14.280Z,23.08
2018-01-21T05:09:16.252Z,21.25
2018-01-21T05:10:18.341Z,19.85
2018-01-21T05:11:20.272Z,19.48
2018-01-21T05:12:22.180Z,21.60
2018-01-21T05:13:24.164Z,20.02
2018-01-21T05:14:26.054Z,21.25
2018-01-21T05:15:37.415Z,21.58
2018-01-21T05:16:39.385Z,22.62
2018-01-21T05:17:41.329Z,20.65
2018-01-21T05:18:45.235Z,19.70
2018-01-21T05:19:47.230Z,20.58
2018-01-21T05:20:49.284Z,19.70
2018-01-21T05:21:51.192Z,21.75
2018-01-21T05:22:53.115Z,18.40
2018-01-21T05:24:00.552Z,21.65
2018-01-21T05:25:02.503Z,23.45
2018-01-21T05:26:04.994Z,20.80
2018-01-21T05:27:07.028Z,19.05
2018-01-21T05:28:08.914Z,19.40
2018-01-21T05:29:10.850Z,19.42
2018-01-21T05:30:12.724Z,19.90
2018-01-21T05:31:14.677Z,19.75
2018-01-21T05:32:16.720Z,19.35
2018-01-21T05:33:18.628Z,19.80
2018-01-21T05:34:20.558Z,19.30
2018-01-21T05:35:29.676Z,21.60
2018-01-21T05:36:31.685Z,18.33
2018-01-21T05:37:33.771Z,20.95
2018-01-21T05:38:37.645Z,20.27
2018-01-21T05:39:39.686Z,21.35
2018-01-21T05:40:41.645Z,23.15
2018-01-21T05:41:49.764Z,21.42
2018-01-21T05:42:51.740Z,21.37
2018-01-21T05:43:53.670Z,22.35
2018-01-21T05:44:55.631Z,20.20
2018-01-21T05:45:57.527Z,22.52
2018-01-21T05:46:59.416Z,22.77
2018-01-21T05:48:01.360Z,21.73
2018-01-21T05:49:03.304Z,21.30
2018-01-21T05:50:05.523Z,21.98
2018-01-21T05:51:07.724Z,21.62
2018-01-21T05:52:09.650Z,22.60
2018-01-21T05:53:11.564Z,22.23
2018-01-21T05:54:13.686Z,24.50
2018-01-21T05:55:15.580Z,27.67
2018-01-21T05:56:17.738Z,26.83
2018-01-21T05:57:20.588Z,24.42
2018-01-21T05:58:22.656Z,25.92
2018-01-21T05:59:24.998Z,28.35
2018-01-21T06:00:27.847Z,24.30
2018-01-21T06:01:29.727Z,23.75
2018-01-21T06:02:31.639Z,27.65
2018-01-21T06:03:33.807Z,25.58
2018-01-21T06:04:36.658Z,26.30
2018-01-21T06:05:44.695Z,24.83
2018-01-21T06:06:46.604Z,24.58
2018-01-21T06:07:48.615Z,22.80
2018-01-21T06:08:50.533Z,28.92
2018-01-21T06:09:52.496Z,26.67
2018-01-21T06:10:54.477Z,28.00
2018-01-21T06:11:56.506Z,26.85
2018-01-21T06:12:58.403Z,24.20
2018-01-21T06:14:00.288Z,24.33
2018-01-21T06:15:02.244Z,23.98
2018-01-21T06:16:04.296Z,25.42
2018-01-21T06:17:06.193Z,23.90
2018-01-21T06:18:08.200Z,25.60
2018-01-21T06:19:10.166Z,31.40
2018-01-21T06:20:12.209Z,24.00
2018-01-21T06:21:14.321Z,25.20
2018-01-21T06:22:20.354Z,26.52
2018-01-21T06:23:22.279Z,24.98
2018-01-21T06:24:24.225Z,26.85
2018-01-21T06:25:26.175Z,22.98
2018-01-21T06:26:28.213Z,25.52
2018-01-21T06:27:30.148Z,28.45
2018-01-21T06:28:32.005Z,27.10
2018-01-21T06:29:33.899Z,28.00
2018-01-21T06:30:42.460Z,27.15
2018-01-21T06:31:44.583Z,24.65
2018-01-21T06:32:46.489Z,24.60
2018-01-21T06:33:48.484Z,27.67
2018-01-21T06:34:50.388Z,25.15
2018-01-21T06:35:52.353Z,26.95
2018-01-21T06:36:55.243Z,27.33
2018-01-21T06:37:57.259Z,24.63
2018-01-21T06:38:59.930Z,26.75
2018-01-21T06:40:02.452Z,24.95
2018-01-21T06:41:04.413Z,27.73
2018-01-21T06:42:06.355Z,27.17
2018-01-21T06:43:09.285Z,27.83
2018-01-21T06:44:11.795Z,24.48
2018-01-21T06:45:13.757Z,25.67
2018-01-21T06:46:15.802Z,24.85
2018-01-21T06:47:17.803Z,26.92
2018-01-21T06:48:19.706Z,24.02
2018-01-21T06:49:22.003Z,30.75
2018-01-21T06:50:24.356Z,27.10
2018-01-21T06:51:26.414Z,28.05
2018-01-21T06:52:28.365Z,30.73
2018-01-21T06:53:30.321Z,29.60
2018-01-21T06:54:32.198Z,26.58
2018-01-21T06:55:34.093Z,27.83
2018-01-21T06:56:36.156Z,24.02
2018-01-21T06:57:38.054Z,28.85
2018-01-21T06:58:39.912Z,29.92
2018-01-21T06:59:41.851Z,28.00
2018-01-21T07:00:43.732Z,25.17
2018-01-21T07:01:45.833Z,30.48
2018-01-21T07:02:47.748Z,24.98
2018-01-21T07:03:49.645Z,26.98
2018-01-21T07:04:51.520Z,23.92
2018-01-21T07:05:53.403Z,27.80
2018-01-21T07:06:55.344Z,25.62
2018-01-21T07:07:57.428Z,26.45
2018-01-21T07:08:59.605Z,26.45
2018-01-21T07:10:01.487Z,25.85
2018-01-21T07:11:03.490Z,25.05
2018-01-21T07:12:07.481Z,28.62
2018-01-21T07:13:09.425Z,27.15
2018-01-21T07:14:15.179Z,25.85
2018-01-21T07:15:17.619Z,25.12
2018-01-21T07:16:19.551Z,26.37
2018-01-21T07:17:21.513Z,26.65
2018-01-21T07:18:23.580Z,28.55
2018-01-21T07:19:25.498Z,27.37
2018-01-21T07:20:27.553Z,25.70
2018-01-21T07:21:29.593Z,23.83
2018-01-21T07:23:40.128Z,26.25
2018-01-21T07:24:42.055Z,22.80
2018-01-21T07:25:44.352Z,26.70
2018-01-21T07:26:46.692Z,25.48
2018-01-21T07:27:48.666Z,22.17
2018-01-21T07:28:50.839Z,25.70
2018-01-21T07:29:53.599Z,24.70
2018-01-21T07:30:56.345Z,23.27
2018-01-21T07:31:58.275Z,25.37
2018-01-21T07:33:00.236Z,25.83
2018-01-21T07:34:02.454Z,25.52
2018-01-21T07:35:05.141Z,28.08
2018-01-21T07:36:13.374Z,27.30
2018-01-21T07:37:15.542Z,26.20
2018-01-21T07:38:18.381Z,23.05
2018-01-21T07:39:20.462Z,21.50
2018-01-21T07:40:24.802Z,24.73
2018-01-21T07:41:26.907Z,25.20
2018-01-21T07:42:31.808Z,25.25
2018-01-21T07:43:33.901Z,22.45
2018-01-21T07:44:35.930Z,24.27
2018-01-21T07:45:39.272Z,22.83
2018-01-21T07:46:41.888Z,26.15
2018-01-21T07:47:43.890Z,24.85
2018-01-21T07:48:49.334Z,24.90
2018-01-21T07:49:52.796Z,24.63
2018-01-21T07:50:55.903Z,23.75
2018-01-21T07:51:59.884Z,23.38
2018-01-21T07:53:03.481Z,24.48
2018-01-21T07:54:08.232Z,24.98
2018-01-21T07:55:12.140Z,23.83
2018-01-21T07:56:17.317Z,22.13
2018-01-21T07:57:21.061Z,23.25
2018-01-21T07:58:25.674Z,25.60
2018-01-21T07:59:30.568Z,24.30
2018-01-21T08:00:34.035Z,22.85
2018-01-21T08:01:36.790Z,24.02
2018-01-21T08:02:39.315Z,24.63
2018-01-21T08:03:42.701Z,25.40
2018-01-21T08:04:46.089Z,26.05
2018-01-21T08:05:52.281Z,26.00
2018-01-21T08:06:54.541Z,21.98
2018-01-21T08:07:56.631Z,23.38
2018-01-21T08:08:59.823Z,22.48
2018-01-21T08:10:01.780Z,22.33
2018-01-21T08:11:04.919Z,21.15
2018-01-21T08:12:07.478Z,23.98
2018-01-21T08:13:09.689Z,23.67
2018-01-21T08:14:11.779Z,27.73
2018-01-21T08:15:13.883Z,24.08
2018-01-21T08:16:17.768Z,23.98
2018-01-21T08:17:20.011Z,23.58
2018-01-21T08:18:22.256Z,22.95
2018-01-21T08:19:24.233Z,23.90
2018-01-21T08:20:26.324Z,21.92
2018-01-21T08:21:29.622Z,25.12
2018-01-21T08:22:31.648Z,26.20
2018-01-21T08:23:34.018Z,24.30
2018-01-21T08:24:36.034Z,22.25
2018-01-21T08:25:37.933Z,23.60
2018-01-21T08:26:40.000Z,24.77
2018-01-21T08:27:42.644Z,24.08
2018-01-21T08:28:44.782Z,23.23
2018-01-21T08:29:46.804Z,23.52
2018-01-21T08:30:48.766Z,21.40
2018-01-21T08:31:50.804Z,21.75
2018-01-21T08:32:52.816Z,23.48
2018-01-21T08:34:01.146Z,22.62
2018-01-21T08:35:09.519Z,26.52
2018-01-21T08:36:17.829Z,29.20
2018-01-21T08:37:26.044Z,22.40
2018-01-21T08:38:34.059Z,23.12
2018-01-21T08:39:42.500Z,21.60
2018-01-21T08:52:51.759Z,25.17
2018-01-21T08:54:01.688Z,23.73
2018-01-21T08:55:08.828Z,24.45
2018-01-21T08:56:15.045Z,27.77
2018-01-21T08:57:21.348Z,25.35
2018-01-21T08:58:28.757Z,27.37
2018-01-21T08:59:35.820Z,24.00
2018-01-21T09:00:42.147Z,23.77
2018-01-21T09:01:48.713Z,24.37
2018-01-21T09:02:55.115Z,24.87
2018-01-21T09:04:01.333Z,22.92
2018-01-21T09:05:07.534Z,26.73
2018-01-21T09:06:13.809Z,25.58
2018-01-21T09:07:20.162Z,23.00
2018-01-21T09:08:26.305Z,24.60
2018-01-21T09:09:34.568Z,25.50
2018-01-21T09:10:40.785Z,25.48
2018-01-21T09:11:46.998Z,27.08
2018-01-21T09:12:53.179Z,26.35
2018-01-21T09:13:59.340Z,28.62
2018-01-21T09:15:05.572Z,25.95
2018-01-21T09:16:11.764Z,29.15
2018-01-21T09:17:18.056Z,25.48
2018-01-21T09:18:24.208Z,24.95
2018-01-21T09:19:30.815Z,29.95
2018-01-21T09:20:37.312Z,31.95
2018-01-21T09:21:45.005Z,30.37
2018-01-21T09:22:52.260Z,28.40
2018-01-21T09:23:58.397Z,29.92
2018-01-21T09:25:04.285Z,29.08
2018-01-21T09:26:10.623Z,28.58
2018-01-21T09:27:16.852Z,30.37
2018-01-21T09:28:23.288Z,30.65
2018-01-21T09:29:29.443Z,32.63
2018-01-21T09:30:35.719Z,29.02
2018-01-21T09:31:41.876Z,31.75
2018-01-21T09:32:48.064Z,31.17
2018-01-21T09:33:54.221Z,29.67
2018-01-21T09:35:00.380Z,36.95
2018-01-21T09:36:07.148Z,34.28
2018-01-21T09:37:13.276Z,31.45
2018-01-21T09:38:19.439Z,30.12
2018-01-21T09:39:25.554Z,32.63
2018-01-21T09:40:33.636Z,31.98
2018-01-21T09:41:40.736Z,30.25
2018-01-21T09:42:46.912Z,29.60
2018-01-21T09:43:53.166Z,32.83
2018-01-21T09:44:59.352Z,32.78
2018-01-21T09:46:05.574Z,36.30
2018-01-21T09:47:11.799Z,32.28
2018-01-21T09:48:18.074Z,33.90
2018-01-21T09:49:24.227Z,33.85
2018-01-21T09:50:30.572Z,33.60
2018-01-21T09:51:37.171Z,34.45
2018-01-21T09:52:43.343Z,28.95
2018-01-21T09:53:50.259Z,31.58
2018-01-21T09:54:56.563Z,30.88
2018-01-21T09:56:03.844Z,31.65
2018-01-21T09:57:10.055Z,33.38
2018-01-21T09:58:16.587Z,36.70
2018-01-21T09:59:23.028Z,33.08
2018-01-21T10:00:29.385Z,30.42
2018-01-21T10:01:35.549Z,34.03
2018-01-21T10:02:41.705Z,33.65
2018-01-21T10:03:47.979Z,35.33
2018-01-21T10:04:54.171Z,32.65
2018-01-21T10:06:00.319Z,31.77
2018-01-21T10:07:06.475Z,34.65
2018-01-21T10:08:12.548Z,33.08
2018-01-21T10:09:18.951Z,34.72
2018-01-21T10:10:26.078Z,33.65
2018-01-21T10:11:32.746Z,33.25
2018-01-21T10:12:40.073Z,34.13
2018-01-21T10:13:46.241Z,32.08
2018-01-21T10:14:52.403Z,35.08
2018-01-21T10:15:58.347Z,31.98
2018-01-21T10:17:05.399Z,32.03
2018-01-21T10:18:11.533Z,31.50
2018-01-21T10:19:17.745Z,31.62
2018-01-21T10:20:23.959Z,31.85
2018-01-21T10:21:30.161Z,36.08
2018-01-21T10:22:36.399Z,34.60
2018-01-21T10:23:42.642Z,35.42
2018-01-21T10:24:48.986Z,38.08
2018-01-21T10:25:55.137Z,33.38
2018-01-21T10:27:01.351Z,33.72
2018-01-21T10:28:07.568Z,31.90
2018-01-21T10:29:13.708Z,33.70
2018-01-21T10:30:19.961Z,30.70
2018-01-21T10:31:26.501Z,31.60
2018-01-21T10:32:32.769Z,29.55
2018-01-21T10:33:40.559Z,30.33
2018-01-21T10:34:46.849Z,30.45
2018-01-21T10:35:53.265Z,29.30
2018-01-21T10:36:59.393Z,33.45
2018-01-21T10:38:06.983Z,27.23
2018-01-21T10:39:13.942Z,28.30
2018-01-21T10:40:24.506Z,32.35
2018-01-21T10:41:30.419Z,28.55
2018-01-21T10:42:36.831Z,27.55
2018-01-21T10:43:43.606Z,26.12
2018-01-21T10:44:50.252Z,29.37
2018-01-21T10:45:56.600Z,30.88
2018-01-21T10:47:02.999Z,31.70
2018-01-21T10:48:09.494Z,27.90
2018-01-21T10:49:16.013Z,29.55
2018-01-21T10:50:22.343Z,27.65
2018-01-21T10:51:28.417Z,30.62
2018-01-21T10:52:34.910Z,26.52
2018-01-21T10:53:41.424Z,28.52
2018-01-21T10:54:47.781Z,28.48
2018-01-21T10:55:54.169Z,28.77
2018-01-21T10:57:00.362Z,23.70
2018-01-21T10:58:06.678Z,27.40
2018-01-21T10:59:12.867Z,26.55
2018-01-21T11:00:19.396Z,24.80
2018-01-21T11:01:25.885Z,29.87
2018-01-21T11:02:32.078Z,26.98
2018-01-21T11:03:38.480Z,27.25
2018-01-21T11:04:44.820Z,28.38
2018-01-21T11:05:51.173Z,28.33
2018-01-21T11:06:57.381Z,25.30
2018-01-21T11:08:03.567Z,25.27
2018-01-21T11:09:09.954Z,26.30
2018-01-21T11:10:16.357Z,27.65
2018-01-21T11:11:24.306Z,27.30
2018-01-21T11:12:30.788Z,23.83
2018-01-21T11:13:37.117Z,25.27
2018-01-21T11:14:43.338Z,25.73
2018-01-21T11:15:50.766Z,24.63
2018-01-21T11:16:57.609Z,22.83
2018-01-21T11:18:04.045Z,25.20
2018-01-21T11:19:10.260Z,23.55
2018-01-21T11:20:16.552Z,26.23
2018-01-21T11:21:22.712Z,26.25
2018-01-21T11:22:29.614Z,26.00
2018-01-21T11:23:36.352Z,24.42
2018-01-21T11:24:43.012Z,28.25
2018-01-21T11:25:49.244Z,24.50
2018-01-21T11:26:57.056Z,24.35
2018-01-21T11:28:03.456Z,26.65
2018-01-21T11:29:09.858Z,25.45
2018-01-21T11:30:16.509Z,27.52
2018-01-21T11:31:23.494Z,28.25
2018-01-21T11:32:31.437Z,28.87
2018-01-21T11:33:37.795Z,30.40
2018-01-21T11:34:44.528Z,26.15
2018-01-21T11:35:50.811Z,26.12
2018-01-21T11:36:57.100Z,26.37
2018-01-21T11:38:04.483Z,30.58
2018-01-21T11:39:11.043Z,23.45
2018-01-21T11:40:17.900Z,27.10
2018-01-21T11:41:25.028Z,25.42
2018-01-21T11:42:31.584Z,30.05
2018-01-21T11:43:37.843Z,25.27
2018-01-21T11:44:44.419Z,24.98
2018-01-21T11:45:50.923Z,29.75
2018-01-21T11:46:57.278Z,27.42
2018-01-21T11:48:03.936Z,25.75
2018-01-21T11:49:10.601Z,25.40
2018-01-21T11:50:16.828Z,27.20
2018-01-21T11:51:23.136Z,24.75
2018-01-21T11:52:29.795Z,25.95
2018-01-21T11:53:37.398Z,27.65
2018-01-21T11:54:44.128Z,26.33
2018-01-21T11:55:50.500Z,26.12
2018-01-21T11:56:56.811Z,23.85
2018-01-21T11:58:03.096Z,28.92
2018-01-21T11:59:09.480Z,29.00
2018-01-21T12:00:16.152Z,29.17
2018-01-21T12:01:22.651Z,29.75
2018-01-21T12:02:29.324Z,29.10
2018-01-21T12:03:35.658Z,28.58
2018-01-21T12:04:42.060Z,28.23
2018-01-21T12:05:48.347Z,27.45
2018-01-21T12:06:54.693Z,27.73
2018-01-21T12:08:01.221Z,30.85
2018-01-21T12:09:07.861Z,31.20
2018-01-21T12:10:14.352Z,27.37
2018-01-21T12:11:20.884Z,26.45
2018-01-21T12:12:27.180Z,31.62
2018-01-21T12:13:33.524Z,26.20
2018-01-21T12:14:40.178Z,27.70
2018-01-21T12:15:46.518Z,27.02
2018-01-21T12:16:52.892Z,28.10
2018-01-21T12:17:59.107Z,27.62
2018-01-21T12:19:05.073Z,30.92
2018-01-21T12:20:11.583Z,27.35
2018-01-21T12:21:17.985Z,28.98
2018-01-21T12:22:24.437Z,27.23
2018-01-21T12:23:30.841Z,26.27
2018-01-21T12:24:37.067Z,26.75
2018-01-21T12:25:43.312Z,33.50
2018-01-21T12:26:49.616Z,31.08
2018-01-21T12:27:55.824Z,29.15
2018-01-21T12:29:02.061Z,29.30
2018-01-21T12:30:09.038Z,31.48
2018-01-21T12:31:18.415Z,29.73
2018-01-21T12:32:26.299Z,30.35
2018-01-21T12:33:34.157Z,32.10
2018-01-21T12:34:42.407Z,28.52
2018-01-21T12:35:51.984Z,30.83
2018-01-21T12:36:59.245Z,32.55
2018-01-21T12:38:06.678Z,32.40
2018-01-21T12:39:15.353Z,34.25
2018-01-21T12:40:23.954Z,31.17
2018-01-21T12:41:30.688Z,36.95
2018-01-21T12:42:37.487Z,29.23
2018-01-21T12:43:44.508Z,28.90
2018-01-21T12:44:51.857Z,31.02
2018-01-21T12:45:59.212Z,29.65
2018-01-21T12:47:05.468Z,32.15
2018-01-21T12:48:11.833Z,32.28
2018-01-21T12:49:18.179Z,33.33
2018-01-21T12:50:24.410Z,31.98
2018-01-21T12:51:35.777Z,32.22
2018-01-21T12:52:43.596Z,34.20
2018-01-21T12:53:51.633Z,30.85
2018-01-21T12:54:58.098Z,32.25
2018-01-21T12:56:04.728Z,31.83
2018-01-21T12:57:12.307Z,27.58
2018-01-21T12:58:19.521Z,30.10
2018-01-21T12:59:26.773Z,26.60
2018-01-21T13:00:33.567Z,28.85
2018-01-21T13:01:40.077Z,32.67
2018-01-21T13:02:48.268Z,29.90
2018-01-21T13:03:55.876Z,31.23
2018-01-21T13:05:03.464Z,29.73
2018-01-21T13:06:09.747Z,33.30
2018-01-21T13:07:16.228Z,31.62
2018-01-21T13:08:22.556Z,28.70
2018-01-21T13:09:28.970Z,25.58
2018-01-21T13:10:35.234Z,28.60
2018-01-21T13:11:42.096Z,27.17
2018-01-21T13:12:48.496Z,29.15
2018-01-21T13:13:55.991Z,28.00
2018-01-21T13:15:03.439Z,27.95
2018-01-21T13:16:13.310Z,28.87
2018-01-21T13:17:20.155Z,29.05
2018-01-21T13:18:27.738Z,29.20
2018-01-21T13:19:35.689Z,28.67
2018-01-21T13:20:43.524Z,27.50
2018-01-21T13:21:50.164Z,25.25
2018-01-21T13:22:56.882Z,27.05
2018-01-21T13:24:03.392Z,30.02
2018-01-21T13:25:10.246Z,29.20
2018-01-21T13:26:17.368Z,29.60
2018-01-21T13:27:23.817Z,29.37
2018-01-21T13:28:30.146Z,27.62
2018-01-21T13:29:36.770Z,27.80
2018-01-21T13:30:43.017Z,31.12
2018-01-21T13:31:49.297Z,26.33
2018-01-21T13:32:55.978Z,25.00
2018-01-21T13:34:02.781Z,28.58
2018-01-21T13:35:09.093Z,33.30
2018-01-21T13:36:15.243Z,27.92
2018-01-21T13:37:21.685Z,29.83
2018-01-21T13:38:28.024Z,23.33
2018-01-21T13:39:34.353Z,26.98
2018-01-21T13:40:40.246Z,25.33
2018-01-21T13:41:46.496Z,23.10
2018-01-21T13:42:52.743Z,25.75
2018-01-21T13:43:58.937Z,25.88
2018-01-21T13:45:05.132Z,22.75
2018-01-21T13:46:11.478Z,28.45
2018-01-21T13:47:22.686Z,28.12
2018-01-21T13:48:28.910Z,27.73
2018-01-21T13:49:35.157Z,26.92
2018-01-21T13:50:41.446Z,29.23
2018-01-21T13:51:47.703Z,26.73
2018-01-21T13:52:54.194Z,26.48
2018-01-21T13:54:01.818Z,27.02
2018-01-21T13:55:08.615Z,25.52
2018-01-21T13:56:15.350Z,31.55
2018-01-21T13:57:26.274Z,28.10